sensor_id;sensor_type;location;lat;lon;timestamp;temperature;humidity
27188;DHT22;14708;50.872;5.306;2023-04-25T00:01:02;20.40;66.30
27188;DHT22;14708;50.872;5.306;2023-04-25T00:03:45;20.30;66.10
27188;DHT22;14708;50.872;5.306;2023-04-25T00:06:12;20.40;66.40
27188;DHT22;14708;50.872;5.306;2023-04-25T00:08:37;20.40;66.40
27188;DHT22;14708;50.872;5.306;2023-04-25T00:11:03;20.40;66.30
27188;DHT22;14708;50.872;5.306;2023-04-25T00:13:29;20.40;66.30
27188;DHT22;14708;50.872;5.306;2023-04-25T00:15:55;20.30;66.20
27188;DHT22;14708;50.872;5.306;2023-04-25T00:18:21;20.30;66.20
27188;DHT22;14708;50.872;5.306;2023-04-25T00:20:48;20.30;66.30
27188;DHT22;14708;50.872;5.306;2023-04-25T00:23:14;20.30;66.20
27188;DHT22;14708;50.872;5.306;2023-04-25T00:25:44;20.30;66.30
27188;DHT22;14708;50.872;5.306;2023-04-25T00:28:11;20.30;66.10
27188;DHT22;14708;50.872;5.306;2023-04-25T00:30:37;20.30;66.20
27188;DHT22;14708;50.872;5.306;2023-04-25T00:33:03;20.30;66.10
27188;DHT22;14708;50.872;5.306;2023-04-25T00:35:28;20.30;66.30
27188;DHT22;14708;50.872;5.306;2023-04-25T00:37:54;20.20;66.10
27188;DHT22;14708;50.872;5.306;2023-04-25T00:40:21;20.20;66.10
27188;DHT22;14708;50.872;5.306;2023-04-25T00:42:47;20.30;66.20
27188;DHT22;14708;50.872;5.306;2023-04-25T00:45:14;20.20;66.30
27188;DHT22;14708;50.872;5.306;2023-04-25T00:47:41;20.20;66.20
27188;DHT22;14708;50.872;5.306;2023-04-25T00:50:07;20.20;66.10
27188;DHT22;14708;50.872;5.306;2023-04-25T00:52:49;20.20;66.20
27188;DHT22;14708;50.872;5.306;2023-04-25T00:55:15;20.20;66.20
27188;DHT22;14708;50.872;5.306;2023-04-25T00:57:42;20.20;66.00
27188;DHT22;14708;50.872;5.306;2023-04-25T01:00:08;20.20;66.30
27188;DHT22;14708;50.872;5.306;2023-04-25T01:02:40;20.20;66.20
27188;DHT22;14708;50.872;5.306;2023-04-25T01:05:07;20.20;66.20
27188;DHT22;14708;50.872;5.306;2023-04-25T01:07:34;20.10;66.00
27188;DHT22;14708;50.872;5.306;2023-04-25T01:10:01;20.10;66.10
27188;DHT22;14708;50.872;5.306;2023-04-25T01:12:26;20.10;66.20
27188;DHT22;14708;50.872;5.306;2023-04-25T01:14:52;20.10;66.10
27188;DHT22;14708;50.872;5.306;2023-04-25T01:17:19;20.10;66.10
27188;DHT22;14708;50.872;5.306;2023-04-25T01:19:45;20.10;66.20
27188;DHT22;14708;50.872;5.306;2023-04-25T01:22:14;20.10;66.30
27188;DHT22;14708;50.872;5.306;2023-04-25T01:24:40;20.10;66.20
27188;DHT22;14708;50.872;5.306;2023-04-25T01:27:07;20.10;66.20
27188;DHT22;14708;50.872;5.306;2023-04-25T01:29:35;20.10;66.40
27188;DHT22;14708;50.872;5.306;2023-04-25T01:32:01;20.10;66.30
27188;DHT22;14708;50.872;5.306;2023-04-25T01:34:27;20.00;66.30
27188;DHT22;14708;50.872;5.306;2023-04-25T01:36:53;20.10;66.30
27188;DHT22;14708;50.872;5.306;2023-04-25T01:39:19;20.10;66.30
27188;DHT22;14708;50.872;5.306;2023-04-25T01:41:46;20.10;67.00
27188;DHT22;14708;50.872;5.306;2023-04-25T01:44:13;20.10;66.30
27188;DHT22;14708;50.872;5.306;2023-04-25T01:46:39;20.10;66.20
27188;DHT22;14708;50.872;5.306;2023-04-25T01:49:05;20.10;66.30
27188;DHT22;14708;50.872;5.306;2023-04-25T01:51:31;20.10;66.20
27188;DHT22;14708;50.872;5.306;2023-04-25T01:53:59;20.00;66.10
27188;DHT22;14708;50.872;5.306;2023-04-25T01:56:30;20.00;66.20
27188;DHT22;14708;50.872;5.306;2023-04-25T01:58:56;20.00;66.20
27188;DHT22;14708;50.872;5.306;2023-04-25T02:01:22;20.00;66.30
27188;DHT22;14708;50.872;5.306;2023-04-25T02:03:48;20.00;66.40
27188;DHT22;14708;50.872;5.306;2023-04-25T02:06:13;20.00;66.20
27188;DHT22;14708;50.872;5.306;2023-04-25T02:08:39;20.00;66.50
27188;DHT22;14708;50.872;5.306;2023-04-25T02:11:05;20.00;66.20
27188;DHT22;14708;50.872;5.306;2023-04-25T02:13:30;20.00;66.30
27188;DHT22;14708;50.872;5.306;2023-04-25T02:15:57;20.00;66.40
27188;DHT22;14708;50.872;5.306;2023-04-25T02:18:22;20.00;66.20
27188;DHT22;14708;50.872;5.306;2023-04-25T02:20:48;20.00;66.50
27188;DHT22;14708;50.872;5.306;2023-04-25T02:23:14;19.90;66.10
27188;DHT22;14708;50.872;5.306;2023-04-25T02:25:41;19.90;66.20
27188;DHT22;14708;50.872;5.306;2023-04-25T02:28:06;19.90;66.10
27188;DHT22;14708;50.872;5.306;2023-04-25T02:30:32;19.90;66.20
27188;DHT22;14708;50.872;5.306;2023-04-25T02:32:58;20.00;66.30
27188;DHT22;14708;50.872;5.306;2023-04-25T02:35:24;19.90;65.90
27188;DHT22;14708;50.872;5.306;2023-04-25T02:37:50;19.90;66.00
27188;DHT22;14708;50.872;5.306;2023-04-25T02:40:16;19.90;66.00
27188;DHT22;14708;50.872;5.306;2023-04-25T02:42:41;19.90;65.90
27188;DHT22;14708;50.872;5.306;2023-04-25T02:45:08;19.90;65.90
27188;DHT22;14708;50.872;5.306;2023-04-25T02:47:33;19.90;66.00
27188;DHT22;14708;50.872;5.306;2023-04-25T02:49:59;19.90;66.10
27188;DHT22;14708;50.872;5.306;2023-04-25T02:52:25;19.90;66.00
27188;DHT22;14708;50.872;5.306;2023-04-25T02:54:51;19.90;66.10
27188;DHT22;14708;50.872;5.306;2023-04-25T02:57:16;19.80;65.90
27188;DHT22;14708;50.872;5.306;2023-04-25T02:59:42;19.80;65.80
27188;DHT22;14708;50.872;5.306;2023-04-25T03:02:08;19.80;65.80
27188;DHT22;14708;50.872;5.306;2023-04-25T03:04:33;19.80;66.00
27188;DHT22;14708;50.872;5.306;2023-04-25T03:06:59;19.80;65.90
27188;DHT22;14708;50.872;5.306;2023-04-25T03:09:25;19.80;65.90
27188;DHT22;14708;50.872;5.306;2023-04-25T03:11:51;19.80;65.90
27188;DHT22;14708;50.872;5.306;2023-04-25T03:14:16;19.80;66.10
27188;DHT22;14708;50.872;5.306;2023-04-25T03:16:42;19.80;65.80
27188;DHT22;14708;50.872;5.306;2023-04-25T03:19:08;19.80;65.80
27188;DHT22;14708;50.872;5.306;2023-04-25T03:21:34;19.80;65.70
27188;DHT22;14708;50.872;5.306;2023-04-25T03:24:16;19.80;65.90
27188;DHT22;14708;50.872;5.306;2023-04-25T03:26:41;19.80;65.70
27188;DHT22;14708;50.872;5.306;2023-04-25T03:29:07;19.70;65.80
27188;DHT22;14708;50.872;5.306;2023-04-25T03:31:33;19.80;65.90
27188;DHT22;14708;50.872;5.306;2023-04-25T03:33:58;19.70;65.60
27188;DHT22;14708;50.872;5.306;2023-04-25T03:36:24;19.80;65.70
27188;DHT22;14708;50.872;5.306;2023-04-25T03:38:50;19.80;65.70
27188;DHT22;14708;50.872;5.306;2023-04-25T03:41:16;19.70;65.70
27188;DHT22;14708;50.872;5.306;2023-04-25T03:43:41;19.70;65.70
27188;DHT22;14708;50.872;5.306;2023-04-25T03:46:07;19.70;65.40
27188;DHT22;14708;50.872;5.306;2023-04-25T03:48:33;19.80;65.60
27188;DHT22;14708;50.872;5.306;2023-04-25T03:50:58;19.70;65.60
27188;DHT22;14708;50.872;5.306;2023-04-25T03:53:24;19.70;65.70
27188;DHT22;14708;50.872;5.306;2023-04-25T03:55:50;19.70;65.60
27188;DHT22;14708;50.872;5.306;2023-04-25T03:58:17;19.70;65.50
27188;DHT22;14708;50.872;5.306;2023-04-25T04:00:42;19.70;65.40
27188;DHT22;14708;50.872;5.306;2023-04-25T04:03:08;19.70;65.60
27188;DHT22;14708;50.872;5.306;2023-04-25T04:05:34;19.70;65.60
27188;DHT22;14708;50.872;5.306;2023-04-25T04:07:59;19.70;65.70
27188;DHT22;14708;50.872;5.306;2023-04-25T04:10:25;19.70;65.70
27188;DHT22;14708;50.872;5.306;2023-04-25T04:12:51;19.70;65.70
27188;DHT22;14708;50.872;5.306;2023-04-25T04:15:17;19.70;65.60
27188;DHT22;14708;50.872;5.306;2023-04-25T04:17:43;19.70;65.70
27188;DHT22;14708;50.872;5.306;2023-04-25T04:20:08;19.70;65.70
27188;DHT22;14708;50.872;5.306;2023-04-25T04:22:34;19.70;65.60
27188;DHT22;14708;50.872;5.306;2023-04-25T04:25:00;19.60;65.70
27188;DHT22;14708;50.872;5.306;2023-04-25T04:27:26;19.70;65.70
27188;DHT22;14708;50.872;5.306;2023-04-25T04:33:15;19.60;65.70
27188;DHT22;14708;50.872;5.306;2023-04-25T04:35:41;19.60;65.90
27188;DHT22;14708;50.872;5.306;2023-04-25T04:38:07;19.70;65.90
27188;DHT22;14708;50.872;5.306;2023-04-25T04:40:32;19.60;65.60
27188;DHT22;14708;50.872;5.306;2023-04-25T04:42:58;19.60;65.70
27188;DHT22;14708;50.872;5.306;2023-04-25T04:45:24;19.60;65.70
27188;DHT22;14708;50.872;5.306;2023-04-25T04:47:52;19.60;65.70
27188;DHT22;14708;50.872;5.306;2023-04-25T04:50:21;19.60;65.80
27188;DHT22;14708;50.872;5.306;2023-04-25T04:52:46;19.60;65.90
27188;DHT22;14708;50.872;5.306;2023-04-25T04:55:12;19.60;65.70
27188;DHT22;14708;50.872;5.306;2023-04-25T04:57:38;19.60;65.70
27188;DHT22;14708;50.872;5.306;2023-04-25T05:00:05;19.60;65.80
27188;DHT22;14708;50.872;5.306;2023-04-25T05:02:36;19.60;65.60
27188;DHT22;14708;50.872;5.306;2023-04-25T05:05:02;19.60;65.60
27188;DHT22;14708;50.872;5.306;2023-04-25T05:07:28;19.60;65.60
27188;DHT22;14708;50.872;5.306;2023-04-25T05:09:54;19.60;65.60
27188;DHT22;14708;50.872;5.306;2023-04-25T05:15:48;19.60;65.50
27188;DHT22;14708;50.872;5.306;2023-04-25T05:18:14;19.50;65.50
27188;DHT22;14708;50.872;5.306;2023-04-25T05:20:40;19.60;65.50
27188;DHT22;14708;50.872;5.306;2023-04-25T05:23:05;19.50;65.50
27188;DHT22;14708;50.872;5.306;2023-04-25T05:25:31;19.50;65.50
27188;DHT22;14708;50.872;5.306;2023-04-25T05:27:57;19.60;65.60
27188;DHT22;14708;50.872;5.306;2023-04-25T05:30:23;19.50;65.60
27188;DHT22;14708;50.872;5.306;2023-04-25T05:32:49;19.50;65.50
27188;DHT22;14708;50.872;5.306;2023-04-25T05:35:15;19.50;65.40
27188;DHT22;14708;50.872;5.306;2023-04-25T05:37:41;19.60;65.50
27188;DHT22;14708;50.872;5.306;2023-04-25T05:40:08;19.50;65.50
27188;DHT22;14708;50.872;5.306;2023-04-25T05:42:34;19.50;65.50
27188;DHT22;14708;50.872;5.306;2023-04-25T05:45:00;19.50;65.60
27188;DHT22;14708;50.872;5.306;2023-04-25T05:47:26;19.50;65.50
27188;DHT22;14708;50.872;5.306;2023-04-25T05:49:52;19.50;65.50
27188;DHT22;14708;50.872;5.306;2023-04-25T05:52:18;19.50;65.30
27188;DHT22;14708;50.872;5.306;2023-04-25T05:54:44;19.50;65.30
27188;DHT22;14708;50.872;5.306;2023-04-25T05:57:27;19.50;65.30
27188;DHT22;14708;50.872;5.306;2023-04-25T05:59:55;19.50;65.30
27188;DHT22;14708;50.872;5.306;2023-04-25T06:02:21;19.60;65.30
27188;DHT22;14708;50.872;5.306;2023-04-25T06:04:57;19.60;65.20
27188;DHT22;14708;50.872;5.306;2023-04-25T06:07:23;19.60;65.30
27188;DHT22;14708;50.872;5.306;2023-04-25T06:09:51;19.70;65.00
27188;DHT22;14708;50.872;5.306;2023-04-25T06:12:19;19.70;64.90
27188;DHT22;14708;50.872;5.306;2023-04-25T06:14:45;19.80;64.70
27188;DHT22;14708;50.872;5.306;2023-04-25T06:17:11;20.00;64.90
27188;DHT22;14708;50.872;5.306;2023-04-25T06:19:39;20.10;64.80
27188;DHT22;14708;50.872;5.306;2023-04-25T06:22:06;20.30;64.70
27188;DHT22;14708;50.872;5.306;2023-04-25T06:24:33;20.40;63.90
27188;DHT22;14708;50.872;5.306;2023-04-25T06:27:01;20.50;64.30
27188;DHT22;14708;50.872;5.306;2023-04-25T06:29:28;20.50;64.30
27188;DHT22;14708;50.872;5.306;2023-04-25T06:31:53;20.50;64.30
27188;DHT22;14708;50.872;5.306;2023-04-25T06:34:22;20.50;64.20
27188;DHT22;14708;50.872;5.306;2023-04-25T06:36:48;20.50;64.30
27188;DHT22;14708;50.872;5.306;2023-04-25T06:39:13;20.50;64.50
27188;DHT22;14708;50.872;5.306;2023-04-25T06:41:54;20.50;64.70
27188;DHT22;14708;50.872;5.306;2023-04-25T06:44:20;20.40;64.60
27188;DHT22;14708;50.872;5.306;2023-04-25T06:46:48;20.30;64.70
27188;DHT22;14708;50.872;5.306;2023-04-25T06:49:14;20.40;65.10
27188;DHT22;14708;50.872;5.306;2023-04-25T06:51:40;20.30;64.90
27188;DHT22;14708;50.872;5.306;2023-04-25T06:54:06;20.30;64.90
27188;DHT22;14708;50.872;5.306;2023-04-25T06:56:32;20.20;64.80
27188;DHT22;14708;50.872;5.306;2023-04-25T06:59:03;20.30;64.80
27188;DHT22;14708;50.872;5.306;2023-04-25T07:01:29;20.30;64.90
27188;DHT22;14708;50.872;5.306;2023-04-25T07:04:03;20.40;64.80
27188;DHT22;14708;50.872;5.306;2023-04-25T07:06:43;20.20;64.90
27188;DHT22;14708;50.872;5.306;2023-04-25T07:09:13;20.20;65.20
27188;DHT22;14708;50.872;5.306;2023-04-25T07:11:46;20.10;65.10
27188;DHT22;14708;50.872;5.306;2023-04-25T07:14:12;20.20;65.30
27188;DHT22;14708;50.872;5.306;2023-04-25T07:16:38;20.20;64.30
27188;DHT22;14708;50.872;5.306;2023-04-25T07:19:04;20.20;64.00
27188;DHT22;14708;50.872;5.306;2023-04-25T07:21:29;20.30;63.60
27188;DHT22;14708;50.872;5.306;2023-04-25T07:23:56;20.20;59.70
27188;DHT22;14708;50.872;5.306;2023-04-25T07:26:22;20.10;62.50
27188;DHT22;14708;50.872;5.306;2023-04-25T07:28:48;20.10;63.40
27188;DHT22;14708;50.872;5.306;2023-04-25T07:31:17;20.10;63.60
27188;DHT22;14708;50.872;5.306;2023-04-25T07:33:44;20.10;63.60
27188;DHT22;14708;50.872;5.306;2023-04-25T07:36:13;20.00;63.70
27188;DHT22;14708;50.872;5.306;2023-04-25T07:38:40;20.00;63.80
27188;DHT22;14708;50.872;5.306;2023-04-25T07:41:06;20.00;63.90
27188;DHT22;14708;50.872;5.306;2023-04-25T07:43:32;20.00;64.00
27188;DHT22;14708;50.872;5.306;2023-04-25T07:45:58;20.00;64.20
27188;DHT22;14708;50.872;5.306;2023-04-25T07:48:26;20.00;64.10
27188;DHT22;14708;50.872;5.306;2023-04-25T07:50:51;20.00;64.10
27188;DHT22;14708;50.872;5.306;2023-04-25T07:53:17;20.00;64.30
27188;DHT22;14708;50.872;5.306;2023-04-25T07:55:43;19.90;64.00
27188;DHT22;14708;50.872;5.306;2023-04-25T07:58:11;19.90;64.10
27188;DHT22;14708;50.872;5.306;2023-04-25T08:00:37;19.90;64.00
27188;DHT22;14708;50.872;5.306;2023-04-25T08:03:03;19.90;64.00
27188;DHT22;14708;50.872;5.306;2023-04-25T08:05:29;19.90;64.00
27188;DHT22;14708;50.872;5.306;2023-04-25T08:07:54;19.90;64.10
27188;DHT22;14708;50.872;5.306;2023-04-25T08:10:22;19.90;64.20
27188;DHT22;14708;50.872;5.306;2023-04-25T08:12:48;19.90;64.30
27188;DHT22;14708;50.872;5.306;2023-04-25T08:15:26;19.80;64.20
27188;DHT22;14708;50.872;5.306;2023-04-25T08:17:52;19.80;64.20
27188;DHT22;14708;50.872;5.306;2023-04-25T08:20:18;19.80;64.00
27188;DHT22;14708;50.872;5.306;2023-04-25T08:22:44;19.80;64.20
27188;DHT22;14708;50.872;5.306;2023-04-25T08:25:14;19.80;64.20
27188;DHT22;14708;50.872;5.306;2023-04-25T08:27:39;19.80;64.20
27188;DHT22;14708;50.872;5.306;2023-04-25T08:30:07;19.80;64.00
27188;DHT22;14708;50.872;5.306;2023-04-25T08:32:34;19.80;64.00
27188;DHT22;14708;50.872;5.306;2023-04-25T08:34:59;19.80;64.10
27188;DHT22;14708;50.872;5.306;2023-04-25T08:37:25;19.80;64.00
27188;DHT22;14708;50.872;5.306;2023-04-25T08:39:51;19.90;63.80
27188;DHT22;14708;50.872;5.306;2023-04-25T08:42:19;19.90;63.60
27188;DHT22;14708;50.872;5.306;2023-04-25T08:44:49;19.90;63.60
27188;DHT22;14708;50.872;5.306;2023-04-25T08:47:17;19.90;63.50
27188;DHT22;14708;50.872;5.306;2023-04-25T08:49:45;19.90;63.60
27188;DHT22;14708;50.872;5.306;2023-04-25T08:52:15;19.90;63.70
27188;DHT22;14708;50.872;5.306;2023-04-25T08:54:46;19.90;63.80
27188;DHT22;14708;50.872;5.306;2023-04-25T08:57:14;19.90;63.80
27188;DHT22;14708;50.872;5.306;2023-04-25T08:59:41;19.90;63.70
27188;DHT22;14708;50.872;5.306;2023-04-25T09:02:11;19.90;63.60
27188;DHT22;14708;50.872;5.306;2023-04-25T09:04:40;19.90;63.60
27188;DHT22;14708;50.872;5.306;2023-04-25T09:07:06;19.90;63.50
27188;DHT22;14708;50.872;5.306;2023-04-25T09:09:32;19.90;63.60
27188;DHT22;14708;50.872;5.306;2023-04-25T09:11:58;19.90;63.50
27188;DHT22;14708;50.872;5.306;2023-04-25T09:14:25;19.90;62.80
27188;DHT22;14708;50.872;5.306;2023-04-25T09:19:35;20.00;61.40
27188;DHT22;14708;50.872;5.306;2023-04-25T09:22:04;19.90;62.40
27188;DHT22;14708;50.872;5.306;2023-04-25T09:27:13;20.00;62.40
27188;DHT22;14708;50.872;5.306;2023-04-25T09:29:43;20.10;62.40
27188;DHT22;14708;50.872;5.306;2023-04-25T09:32:15;20.10;62.40
27188;DHT22;14708;50.872;5.306;2023-04-25T09:34:49;20.10;59.30
27188;DHT22;14708;50.872;5.306;2023-04-25T09:37:27;20.10;59.20
27188;DHT22;14708;50.872;5.306;2023-04-25T09:40:05;20.10;60.00
27188;DHT22;14708;50.872;5.306;2023-04-25T09:42:32;20.20;61.30
27188;DHT22;14708;50.872;5.306;2023-04-25T09:45:01;20.20;61.00
27188;DHT22;14708;50.872;5.306;2023-04-25T09:47:27;20.20;60.90
27188;DHT22;14708;50.872;5.306;2023-04-25T09:49:54;20.20;60.80
27188;DHT22;14708;50.872;5.306;2023-04-25T09:52:24;20.30;61.10
27188;DHT22;14708;50.872;5.306;2023-04-25T09:54:51;20.40;60.90
27188;DHT22;14708;50.872;5.306;2023-04-25T09:57:17;20.50;60.90
27188;DHT22;14708;50.872;5.306;2023-04-25T09:59:52;20.50;60.80
27188;DHT22;14708;50.872;5.306;2023-04-25T10:02:21;20.50;61.30
27188;DHT22;14708;50.872;5.306;2023-04-25T10:04:48;20.50;61.40
27188;DHT22;14708;50.872;5.306;2023-04-25T10:07:14;20.50;61.70
27188;DHT22;14708;50.872;5.306;2023-04-25T10:09:40;20.60;62.00
27188;DHT22;14708;50.872;5.306;2023-04-25T10:12:07;20.60;62.20
27188;DHT22;14708;50.872;5.306;2023-04-25T10:14:36;20.60;62.40
27188;DHT22;14708;50.872;5.306;2023-04-25T10:17:02;20.50;62.20
27188;DHT22;14708;50.872;5.306;2023-04-25T10:19:28;20.60;62.60
27188;DHT22;14708;50.872;5.306;2023-04-25T10:22:07;20.60;62.80
27188;DHT22;14708;50.872;5.306;2023-04-25T10:24:35;20.50;62.90
27188;DHT22;14708;50.872;5.306;2023-04-25T10:27:02;20.50;63.00
27188;DHT22;14708;50.872;5.306;2023-04-25T10:29:28;20.50;63.20
27188;DHT22;14708;50.872;5.306;2023-04-25T10:31:54;20.40;62.70
27188;DHT22;14708;50.872;5.306;2023-04-25T10:34:46;20.40;63.30
27188;DHT22;14708;50.872;5.306;2023-04-25T10:37:15;20.30;63.40
27188;DHT22;14708;50.872;5.306;2023-04-25T10:39:41;20.20;63.70
27188;DHT22;14708;50.872;5.306;2023-04-25T10:42:07;20.20;63.20
27188;DHT22;14708;50.872;5.306;2023-04-25T10:44:33;20.40;61.90
27188;DHT22;14708;50.872;5.306;2023-04-25T10:47:00;20.30;62.80
27188;DHT22;14708;50.872;5.306;2023-04-25T10:49:34;20.20;62.80
27188;DHT22;14708;50.872;5.306;2023-04-25T10:52:13;20.20;62.80
27188;DHT22;14708;50.872;5.306;2023-04-25T10:55:04;20.20;62.90
27188;DHT22;14708;50.872;5.306;2023-04-25T10:57:43;20.20;62.80
27188;DHT22;14708;50.872;5.306;2023-04-25T11:00:16;20.20;62.70
27188;DHT22;14708;50.872;5.306;2023-04-25T11:02:52;20.20;62.60
27188;DHT22;14708;50.872;5.306;2023-04-25T11:05:44;20.20;62.80
27188;DHT22;14708;50.872;5.306;2023-04-25T11:08:13;20.20;62.60
27188;DHT22;14708;50.872;5.306;2023-04-25T11:10:43;20.20;62.40
27188;DHT22;14708;50.872;5.306;2023-04-25T11:13:09;20.20;62.50
27188;DHT22;14708;50.872;5.306;2023-04-25T11:15:35;20.20;62.50
27188;DHT22;14708;50.872;5.306;2023-04-25T11:18:01;20.20;62.30
27188;DHT22;14708;50.872;5.306;2023-04-25T11:20:29;20.20;62.40
27188;DHT22;14708;50.872;5.306;2023-04-25T11:23:13;20.20;62.30
27188;DHT22;14708;50.872;5.306;2023-04-25T11:25:38;20.20;62.20
27188;DHT22;14708;50.872;5.306;2023-04-25T11:28:04;20.30;62.20
27188;DHT22;14708;50.872;5.306;2023-04-25T11:30:30;20.30;62.10
27188;DHT22;14708;50.872;5.306;2023-04-25T11:32:56;20.30;62.10
27188;DHT22;14708;50.872;5.306;2023-04-25T11:38:53;20.30;62.10
27188;DHT22;14708;50.872;5.306;2023-04-25T11:41:19;20.30;62.00
27188;DHT22;14708;50.872;5.306;2023-04-25T11:43:47;20.40;62.20
27188;DHT22;14708;50.872;5.306;2023-04-25T11:46:14;20.30;62.10
27188;DHT22;14708;50.872;5.306;2023-04-25T11:48:41;20.30;62.00
27188;DHT22;14708;50.872;5.306;2023-04-25T11:51:07;20.30;61.10
27188;DHT22;14708;50.872;5.306;2023-04-25T11:53:33;20.30;61.30
27188;DHT22;14708;50.872;5.306;2023-04-25T11:56:19;20.30;61.40
27188;DHT22;14708;50.872;5.306;2023-04-25T11:59:02;20.30;60.80
27188;DHT22;14708;50.872;5.306;2023-04-25T12:01:36;20.30;61.20
27188;DHT22;14708;50.872;5.306;2023-04-25T12:04:37;20.30;61.30
27188;DHT22;14708;50.872;5.306;2023-04-25T12:07:03;20.30;61.30
27188;DHT22;14708;50.872;5.306;2023-04-25T12:09:33;20.30;61.10
27188;DHT22;14708;50.872;5.306;2023-04-25T12:12:00;20.30;61.10
27188;DHT22;14708;50.872;5.306;2023-04-25T12:14:32;20.30;61.00
27188;DHT22;14708;50.872;5.306;2023-04-25T12:16:59;20.30;59.50
27188;DHT22;14708;50.872;5.306;2023-04-25T12:19:26;20.30;60.20
27188;DHT22;14708;50.872;5.306;2023-04-25T12:21:56;20.20;59.90
27188;DHT22;14708;50.872;5.306;2023-04-25T12:24:23;20.20;60.00
27188;DHT22;14708;50.872;5.306;2023-04-25T12:27:06;20.10;60.50
27188;DHT22;14708;50.872;5.306;2023-04-25T12:29:34;20.10;61.20
27188;DHT22;14708;50.872;5.306;2023-04-25T12:32:00;20.10;60.50
27188;DHT22;14708;50.872;5.306;2023-04-25T12:34:30;20.10;60.50
27188;DHT22;14708;50.872;5.306;2023-04-25T12:36:57;20.10;59.60
27188;DHT22;14708;50.872;5.306;2023-04-25T12:39:24;20.10;59.70
27188;DHT22;14708;50.872;5.306;2023-04-25T12:41:51;20.10;60.90
27188;DHT22;14708;50.872;5.306;2023-04-25T12:44:20;20.10;60.10
27188;DHT22;14708;50.872;5.306;2023-04-25T12:46:47;20.10;60.70
27188;DHT22;14708;50.872;5.306;2023-04-25T12:49:12;20.10;61.00
27188;DHT22;14708;50.872;5.306;2023-04-25T12:51:44;20.10;61.10
27188;DHT22;14708;50.872;5.306;2023-04-25T12:54:10;20.10;60.70
27188;DHT22;14708;50.872;5.306;2023-04-25T12:56:36;20.10;60.90
27188;DHT22;14708;50.872;5.306;2023-04-25T12:59:02;20.10;57.80
27188;DHT22;14708;50.872;5.306;2023-04-25T13:01:48;20.10;57.20
27188;DHT22;14708;50.872;5.306;2023-04-25T13:04:34;20.20;56.40
27188;DHT22;14708;50.872;5.306;2023-04-25T13:07:02;20.20;56.30
27188;DHT22;14708;50.872;5.306;2023-04-25T13:09:28;20.20;57.40
27188;DHT22;14708;50.872;5.306;2023-04-25T13:11:54;20.20;58.80
27188;DHT22;14708;50.872;5.306;2023-04-25T13:14:21;20.20;59.10
27188;DHT22;14708;50.872;5.306;2023-04-25T13:16:48;20.20;59.00
27188;DHT22;14708;50.872;5.306;2023-04-25T13:19:14;20.30;56.80
27188;DHT22;14708;50.872;5.306;2023-04-25T13:21:40;20.20;57.40
27188;DHT22;14708;50.872;5.306;2023-04-25T13:24:06;20.40;56.90
27188;DHT22;14708;50.872;5.306;2023-04-25T13:26:32;20.40;55.40
27188;DHT22;14708;50.872;5.306;2023-04-25T13:28:57;20.40;55.00
27188;DHT22;14708;50.872;5.306;2023-04-25T13:31:23;20.50;54.70
27188;DHT22;14708;50.872;5.306;2023-04-25T13:33:55;20.50;53.20
27188;DHT22;14708;50.872;5.306;2023-04-25T13:36:20;20.40;53.80
27188;DHT22;14708;50.872;5.306;2023-04-25T13:38:46;20.60;51.30
27188;DHT22;14708;50.872;5.306;2023-04-25T13:41:13;20.70;49.90
27188;DHT22;14708;50.872;5.306;2023-04-25T13:43:43;20.70;50.30
27188;DHT22;14708;50.872;5.306;2023-04-25T13:46:08;20.90;49.70
27188;DHT22;14708;50.872;5.306;2023-04-25T13:48:35;21.00;50.10
27188;DHT22;14708;50.872;5.306;2023-04-25T13:51:01;21.10;50.30
27188;DHT22;14708;50.872;5.306;2023-04-25T13:53:26;21.10;50.50
27188;DHT22;14708;50.872;5.306;2023-04-25T13:55:52;21.20;50.80
27188;DHT22;14708;50.872;5.306;2023-04-25T13:58:18;21.30;50.40
27188;DHT22;14708;50.872;5.306;2023-04-25T14:00:45;21.40;51.00
27188;DHT22;14708;50.872;5.306;2023-04-25T14:03:12;21.50;50.30
27188;DHT22;14708;50.872;5.306;2023-04-25T14:05:38;21.50;50.30
27188;DHT22;14708;50.872;5.306;2023-04-25T14:08:05;21.60;48.30
27188;DHT22;14708;50.872;5.306;2023-04-25T14:10:32;21.50;49.90
27188;DHT22;14708;50.872;5.306;2023-04-25T14:13:17;21.60;50.60
27188;DHT22;14708;50.872;5.306;2023-04-25T14:15:42;21.60;51.20
27188;DHT22;14708;50.872;5.306;2023-04-25T14:18:08;21.60;52.10
27188;DHT22;14708;50.872;5.306;2023-04-25T14:20:34;21.60;52.80
27188;DHT22;14708;50.872;5.306;2023-04-25T14:23:00;21.60;53.30
27188;DHT22;14708;50.872;5.306;2023-04-25T14:25:26;21.50;53.60
27188;DHT22;14708;50.872;5.306;2023-04-25T14:27:51;21.60;54.20
27188;DHT22;14708;50.872;5.306;2023-04-25T14:30:18;21.60;54.50
27188;DHT22;14708;50.872;5.306;2023-04-25T14:32:45;21.50;54.90
27188;DHT22;14708;50.872;5.306;2023-04-25T14:35:11;21.50;55.10
27188;DHT22;14708;50.872;5.306;2023-04-25T14:37:37;21.50;55.30
27188;DHT22;14708;50.872;5.306;2023-04-25T14:40:03;21.50;55.60
27188;DHT22;14708;50.872;5.306;2023-04-25T14:42:30;21.50;55.70
27188;DHT22;14708;50.872;5.306;2023-04-25T14:44:57;21.50;55.90
27188;DHT22;14708;50.872;5.306;2023-04-25T14:47:23;21.50;56.20
27188;DHT22;14708;50.872;5.306;2023-04-25T14:49:48;21.50;56.00
27188;DHT22;14708;50.872;5.306;2023-04-25T14:52:20;21.40;56.10
27188;DHT22;14708;50.872;5.306;2023-04-25T14:54:46;21.30;56.30
27188;DHT22;14708;50.872;5.306;2023-04-25T14:57:19;21.20;56.30
27188;DHT22;14708;50.872;5.306;2023-04-25T14:59:45;21.20;56.40
27188;DHT22;14708;50.872;5.306;2023-04-25T15:02:11;21.10;56.10
27188;DHT22;14708;50.872;5.306;2023-04-25T15:04:37;21.20;56.40
27188;DHT22;14708;50.872;5.306;2023-04-25T15:07:05;21.20;56.60
27188;DHT22;14708;50.872;5.306;2023-04-25T15:09:31;21.10;57.00
27188;DHT22;14708;50.872;5.306;2023-04-25T15:11:57;21.10;57.20
27188;DHT22;14708;50.872;5.306;2023-04-25T15:14:23;20.90;55.30
27188;DHT22;14708;50.872;5.306;2023-04-25T15:16:49;20.90;56.10
27188;DHT22;14708;50.872;5.306;2023-04-25T15:19:15;20.90;57.60
27188;DHT22;14708;50.872;5.306;2023-04-25T15:21:41;21.00;56.90
27188;DHT22;14708;50.872;5.306;2023-04-25T15:24:07;21.00;57.50
27188;DHT22;14708;50.872;5.306;2023-04-25T15:26:33;21.10;58.10
27188;DHT22;14708;50.872;5.306;2023-04-25T15:28:58;21.20;58.30
27188;DHT22;14708;50.872;5.306;2023-04-25T15:31:24;21.20;57.80
27188;DHT22;14708;50.872;5.306;2023-04-25T15:33:53;21.30;58.10
27188;DHT22;14708;50.872;5.306;2023-04-25T15:36:19;21.30;58.50
27188;DHT22;14708;50.872;5.306;2023-04-25T15:39:02;21.30;57.60
27188;DHT22;14708;50.872;5.306;2023-04-25T15:41:30;21.30;58.10
27188;DHT22;14708;50.872;5.306;2023-04-25T15:43:56;21.30;58.30
27188;DHT22;14708;50.872;5.306;2023-04-25T15:46:21;21.30;58.30
27188;DHT22;14708;50.872;5.306;2023-04-25T15:48:51;21.20;58.40